sensor_id;sensor_type;location;lat;lon;timestamp;P1;durP1;ratioP1;P2;durP2;ratioP2
55684;SDS011;41883;49.544;8.646;2022-10-16T00:01:04;1.75;;;1.23;;
55684;SDS011;41883;49.544;8.646;2022-10-16T00:03:31;2.00;;;1.35;;
55684;SDS011;41883;49.544;8.646;2022-10-16T00:05:58;1.85;;;1.25;;
55684;SDS011;41883;49.544;8.646;2022-10-16T00:08:25;1.90;;;1.20;;
55684;SDS011;41883;49.544;8.646;2022-10-16T00:10:50;2.50;;;1.35;;
55684;SDS011;41883;49.544;8.646;2022-10-16T00:13:16;2.10;;;1.45;;
55684;SDS011;41883;49.544;8.646;2022-10-16T00:15:43;4.28;;;1.60;;
55684;SDS011;41883;49.544;8.646;2022-10-16T00:18:09;2.33;;;1.50;;
55684;SDS011;41883;49.544;8.646;2022-10-16T00:20:35;1.95;;;1.30;;
55684;SDS011;41883;49.544;8.646;2022-10-16T00:23:03;3.20;;;1.25;;
55684;SDS011;41883;49.544;8.646;2022-10-16T00:25:30;2.08;;;1.00;;
55684;SDS011;41883;49.544;8.646;2022-10-16T00:27:57;1.33;;;1.00;;
55684;SDS011;41883;49.544;8.646;2022-10-16T00:30:23;1.38;;;1.08;;
55684;SDS011;41883;49.544;8.646;2022-10-16T00:32:49;2.50;;;1.10;;
55684;SDS011;41883;49.544;8.646;2022-10-16T00:35:14;2.13;;;1.65;;
55684;SDS011;41883;49.544;8.646;2022-10-16T00:37:40;2.47;;;1.70;;
55684;SDS011;41883;49.544;8.646;2022-10-16T00:40:06;2.67;;;1.50;;
55684;SDS011;41883;49.544;8.646;2022-10-16T00:42:33;2.90;;;1.73;;
55684;SDS011;41883;49.544;8.646;2022-10-16T00:44:59;2.63;;;1.65;;
55684;SDS011;41883;49.544;8.646;2022-10-16T00:47:27;1.98;;;1.50;;
55684;SDS011;41883;49.544;8.646;2022-10-16T00:50:11;2.15;;;1.35;;
55684;SDS011;41883;49.544;8.646;2022-10-16T00:52:44;2.58;;;1.20;;
55684;SDS011;41883;49.544;8.646;2022-10-16T00:55:13;2.55;;;1.30;;
55684;SDS011;41883;49.544;8.646;2022-10-16T00:57:39;2.05;;;1.33;;
55684;SDS011;41883;49.544;8.646;2022-10-16T01:00:06;2.90;;;1.60;;
55684;SDS011;41883;49.544;8.646;2022-10-16T01:02:33;2.67;;;1.40;;
55684;SDS011;41883;49.544;8.646;2022-10-16T01:04:59;2.30;;;1.35;;
55684;SDS011;41883;49.544;8.646;2022-10-16T01:07:35;3.65;;;1.80;;
55684;SDS011;41883;49.544;8.646;2022-10-16T01:12:54;2.25;;;1.20;;
55684;SDS011;41883;49.544;8.646;2022-10-16T01:15:32;4.55;;;1.40;;
55684;SDS011;41883;49.544;8.646;2022-10-16T01:18:04;2.20;;;1.30;;
55684;SDS011;41883;49.544;8.646;2022-10-16T01:26:46;1.95;;;1.20;;
55684;SDS011;41883;49.544;8.646;2022-10-16T01:29:30;2.13;;;1.33;;
55684;SDS011;41883;49.544;8.646;2022-10-16T01:31:58;1.73;;;1.23;;
55684;SDS011;41883;49.544;8.646;2022-10-16T01:34:38;1.90;;;1.10;;
55684;SDS011;41883;49.544;8.646;2022-10-16T01:37:22;1.70;;;1.10;;
55684;SDS011;41883;49.544;8.646;2022-10-16T01:39:54;1.63;;;1.10;;
55684;SDS011;41883;49.544;8.646;2022-10-16T01:42:31;2.97;;;1.35;;
55684;SDS011;41883;49.544;8.646;2022-10-16T01:45:01;3.40;;;1.25;;
55684;SDS011;41883;49.544;8.646;2022-10-16T01:47:29;1.67;;;1.17;;
55684;SDS011;41883;49.544;8.646;2022-10-16T01:49:57;2.45;;;1.50;;
55684;SDS011;41883;49.544;8.646;2022-10-16T01:52:25;1.30;;;1.02;;
55684;SDS011;41883;49.544;8.646;2022-10-16T01:54:53;1.63;;;1.10;;
55684;SDS011;41883;49.544;8.646;2022-10-16T01:57:20;2.15;;;0.90;;
55684;SDS011;41883;49.544;8.646;2022-10-16T01:59:48;2.00;;;1.58;;
55684;SDS011;41883;49.544;8.646;2022-10-16T02:02:20;1.48;;;0.95;;
55684;SDS011;41883;49.544;8.646;2022-10-16T02:04:58;2.38;;;1.10;;
55684;SDS011;41883;49.544;8.646;2022-10-16T02:07:45;2.35;;;1.23;;
55684;SDS011;41883;49.544;8.646;2022-10-16T02:10:12;1.70;;;1.20;;
55684;SDS011;41883;49.544;8.646;2022-10-16T02:12:38;1.38;;;1.02;;
55684;SDS011;41883;49.544;8.646;2022-10-16T02:15:07;1.70;;;1.15;;
55684;SDS011;41883;49.544;8.646;2022-10-16T02:17:33;2.97;;;1.60;;
55684;SDS011;41883;49.544;8.646;2022-10-16T02:19:58;1.40;;;1.10;;
55684;SDS011;41883;49.544;8.646;2022-10-16T02:22:30;3.50;;;1.40;;
55684;SDS011;41883;49.544;8.646;2022-10-16T02:27:57;2.15;;;1.25;;
55684;SDS011;41883;49.544;8.646;2022-10-16T02:30:29;1.98;;;1.33;;
55684;SDS011;41883;49.544;8.646;2022-10-16T02:33:00;2.88;;;1.25;;
55684;SDS011;41883;49.544;8.646;2022-10-16T02:35:27;2.42;;;1.27;;
55684;SDS011;41883;49.544;8.646;2022-10-16T02:37:53;3.38;;;1.50;;
55684;SDS011;41883;49.544;8.646;2022-10-16T02:40:20;1.50;;;1.10;;
55684;SDS011;41883;49.544;8.646;2022-10-16T02:42:49;3.00;;;1.20;;
55684;SDS011;41883;49.544;8.646;2022-10-16T02:45:17;1.60;;;1.10;;
55684;SDS011;41883;49.544;8.646;2022-10-16T02:47:43;1.92;;;1.23;;
55684;SDS011;41883;49.544;8.646;2022-10-16T02:50:09;1.80;;;1.25;;
55684;SDS011;41883;49.544;8.646;2022-10-16T02:52:35;1.83;;;1.30;;
55684;SDS011;41883;49.544;8.646;2022-10-16T02:55:00;3.92;;;1.35;;
55684;SDS011;41883;49.544;8.646;2022-10-16T02:57:25;2.63;;;1.33;;
55684;SDS011;41883;49.544;8.646;2022-10-16T02:59:51;2.30;;;1.30;;
55684;SDS011;41883;49.544;8.646;2022-10-16T03:02:16;1.42;;;1.10;;
55684;SDS011;41883;49.544;8.646;2022-10-16T03:04:41;2.22;;;1.00;;
55684;SDS011;41883;49.544;8.646;2022-10-16T03:07:07;1.75;;;1.20;;
55684;SDS011;41883;49.544;8.646;2022-10-16T03:09:32;3.03;;;1.30;;
55684;SDS011;41883;49.544;8.646;2022-10-16T03:11:58;2.45;;;1.30;;
55684;SDS011;41883;49.544;8.646;2022-10-16T03:14:23;2.55;;;1.60;;
55684;SDS011;41883;49.544;8.646;2022-10-16T03:16:48;1.98;;;1.42;;
55684;SDS011;41883;49.544;8.646;2022-10-16T03:19:13;2.50;;;1.50;;
55684;SDS011;41883;49.544;8.646;2022-10-16T03:21:41;4.10;;;1.67;;
55684;SDS011;41883;49.544;8.646;2022-10-16T03:24:06;5.50;;;1.70;;
55684;SDS011;41883;49.544;8.646;2022-10-16T03:26:31;2.03;;;1.50;;
55684;SDS011;41883;49.544;8.646;2022-10-16T03:28:56;3.05;;;1.40;;
55684;SDS011;41883;49.544;8.646;2022-10-16T03:31:22;2.20;;;1.37;;
55684;SDS011;41883;49.544;8.646;2022-10-16T03:33:47;2.50;;;1.30;;
55684;SDS011;41883;49.544;8.646;2022-10-16T03:36:12;3.15;;;1.63;;
55684;SDS011;41883;49.544;8.646;2022-10-16T03:38:37;2.83;;;1.30;;
55684;SDS011;41883;49.544;8.646;2022-10-16T03:41:03;3.35;;;1.10;;
55684;SDS011;41883;49.544;8.646;2022-10-16T03:43:29;2.13;;;1.52;;
55684;SDS011;41883;49.544;8.646;2022-10-16T03:45:54;1.45;;;1.20;;
55684;SDS011;41883;49.544;8.646;2022-10-16T03:48:19;1.67;;;1.23;;
55684;SDS011;41883;49.544;8.646;2022-10-16T03:50:44;1.88;;;1.20;;
55684;SDS011;41883;49.544;8.646;2022-10-16T03:53:11;2.47;;;1.50;;
55684;SDS011;41883;49.544;8.646;2022-10-16T03:55:36;2.28;;;1.20;;
55684;SDS011;41883;49.544;8.646;2022-10-16T03:58:02;2.90;;;1.58;;
55684;SDS011;41883;49.544;8.646;2022-10-16T04:00:28;3.03;;;1.33;;
55684;SDS011;41883;49.544;8.646;2022-10-16T04:02:53;2.55;;;1.05;;
55684;SDS011;41883;49.544;8.646;2022-10-16T04:05:19;3.22;;;1.30;;
55684;SDS011;41883;49.544;8.646;2022-10-16T04:07:44;2.22;;;1.35;;
55684;SDS011;41883;49.544;8.646;2022-10-16T04:10:09;2.63;;;1.40;;
55684;SDS011;41883;49.544;8.646;2022-10-16T04:12:35;4.43;;;1.38;;
55684;SDS011;41883;49.544;8.646;2022-10-16T04:15:00;2.70;;;1.50;;
55684;SDS011;41883;49.544;8.646;2022-10-16T04:17:25;2.70;;;1.30;;
55684;SDS011;41883;49.544;8.646;2022-10-16T04:19:51;2.13;;;1.55;;
55684;SDS011;41883;49.544;8.646;2022-10-16T04:22:16;2.10;;;1.45;;
55684;SDS011;41883;49.544;8.646;2022-10-16T04:24:41;2.55;;;1.30;;
55684;SDS011;41883;49.544;8.646;2022-10-16T04:27:06;3.65;;;1.50;;
55684;SDS011;41883;49.544;8.646;2022-10-16T04:29:32;1.52;;;1.23;;
55684;SDS011;41883;49.544;8.646;2022-10-16T04:31:57;1.83;;;1.23;;
55684;SDS011;41883;49.544;8.646;2022-10-16T04:34:22;2.10;;;1.17;;
55684;SDS011;41883;49.544;8.646;2022-10-16T04:36:48;1.52;;;1.20;;
55684;SDS011;41883;49.544;8.646;2022-10-16T04:39:16;2.53;;;1.20;;
55684;SDS011;41883;49.544;8.646;2022-10-16T04:41:41;3.08;;;1.48;;
55684;SDS011;41883;49.544;8.646;2022-10-16T04:44:07;2.75;;;1.10;;
55684;SDS011;41883;49.544;8.646;2022-10-16T04:46:32;2.80;;;1.30;;
55684;SDS011;41883;49.544;8.646;2022-10-16T04:48:58;2.80;;;1.50;;
55684;SDS011;41883;49.544;8.646;2022-10-16T04:51:23;3.22;;;1.67;;
55684;SDS011;41883;49.544;8.646;2022-10-16T04:53:50;2.90;;;1.50;;
55684;SDS011;41883;49.544;8.646;2022-10-16T04:56:15;2.88;;;1.30;;
55684;SDS011;41883;49.544;8.646;2022-10-16T04:58:41;4.65;;;1.42;;
55684;SDS011;41883;49.544;8.646;2022-10-16T05:01:06;2.17;;;1.25;;
55684;SDS011;41883;49.544;8.646;2022-10-16T05:03:31;2.15;;;1.20;;
55684;SDS011;41883;49.544;8.646;2022-10-16T05:05:57;2.90;;;1.35;;
55684;SDS011;41883;49.544;8.646;2022-10-16T05:08:22;2.13;;;1.33;;
55684;SDS011;41883;49.544;8.646;2022-10-16T05:10:47;3.00;;;1.50;;
55684;SDS011;41883;49.544;8.646;2022-10-16T05:13:13;4.43;;;1.25;;
55684;SDS011;41883;49.544;8.646;2022-10-16T05:15:38;3.10;;;1.90;;
55684;SDS011;41883;49.544;8.646;2022-10-16T05:18:03;3.60;;;1.48;;
55684;SDS011;41883;49.544;8.646;2022-10-16T05:20:28;2.67;;;1.30;;
55684;SDS011;41883;49.544;8.646;2022-10-16T05:22:54;1.90;;;1.20;;
55684;SDS011;41883;49.544;8.646;2022-10-16T05:25:19;2.40;;;1.50;;
55684;SDS011;41883;49.544;8.646;2022-10-16T05:27:48;1.55;;;1.10;;
55684;SDS011;41883;49.544;8.646;2022-10-16T05:30:14;2.75;;;1.38;;
55684;SDS011;41883;49.544;8.646;2022-10-16T05:32:40;2.17;;;1.30;;
55684;SDS011;41883;49.544;8.646;2022-10-16T05:35:05;1.83;;;1.17;;
55684;SDS011;41883;49.544;8.646;2022-10-16T05:37:31;2.03;;;1.10;;
55684;SDS011;41883;49.544;8.646;2022-10-16T05:39:57;1.98;;;1.40;;
55684;SDS011;41883;49.544;8.646;2022-10-16T05:42:22;1.98;;;1.30;;
55684;SDS011;41883;49.544;8.646;2022-10-16T05:44:47;2.33;;;1.30;;
55684;SDS011;41883;49.544;8.646;2022-10-16T05:47:13;2.58;;;1.40;;
55684;SDS011;41883;49.544;8.646;2022-10-16T05:49:39;2.03;;;1.35;;
55684;SDS011;41883;49.544;8.646;2022-10-16T05:52:04;2.08;;;1.30;;
55684;SDS011;41883;49.544;8.646;2022-10-16T05:54:29;2.25;;;1.35;;
55684;SDS011;41883;49.544;8.646;2022-10-16T05:56:55;1.90;;;1.20;;
55684;SDS011;41883;49.544;8.646;2022-10-16T05:59:20;3.63;;;1.10;;
55684;SDS011;41883;49.544;8.646;2022-10-16T06:01:45;1.50;;;1.00;;
55684;SDS011;41883;49.544;8.646;2022-10-16T06:04:10;3.30;;;1.27;;
55684;SDS011;41883;49.544;8.646;2022-10-16T06:06:36;2.38;;;1.20;;
55684;SDS011;41883;49.544;8.646;2022-10-16T06:09:01;2.67;;;1.20;;
55684;SDS011;41883;49.544;8.646;2022-10-16T06:11:29;1.58;;;1.08;;
55684;SDS011;41883;49.544;8.646;2022-10-16T06:13:57;2.53;;;1.40;;
55684;SDS011;41883;49.544;8.646;2022-10-16T06:16:25;2.10;;;1.20;;
55684;SDS011;41883;49.544;8.646;2022-10-16T06:18:51;2.00;;;1.30;;
55684;SDS011;41883;49.544;8.646;2022-10-16T06:21:19;2.03;;;1.00;;
55684;SDS011;41883;49.544;8.646;2022-10-16T06:23:47;2.60;;;1.42;;
55684;SDS011;41883;49.544;8.646;2022-10-16T06:26:13;2.00;;;1.00;;
55684;SDS011;41883;49.544;8.646;2022-10-16T06:28:40;1.92;;;1.05;;
55684;SDS011;41883;49.544;8.646;2022-10-16T06:31:06;1.50;;;1.08;;
55684;SDS011;41883;49.544;8.646;2022-10-16T06:33:33;1.50;;;1.00;;
55684;SDS011;41883;49.544;8.646;2022-10-16T06:36:05;2.95;;;0.98;;
55684;SDS011;41883;49.544;8.646;2022-10-16T06:38:35;1.25;;;0.90;;
55684;SDS011;41883;49.544;8.646;2022-10-16T06:41:01;2.28;;;1.20;;
55684;SDS011;41883;49.544;8.646;2022-10-16T06:43:28;2.78;;;0.90;;
55684;SDS011;41883;49.544;8.646;2022-10-16T06:45:57;1.30;;;1.00;;
55684;SDS011;41883;49.544;8.646;2022-10-16T06:48:24;2.05;;;1.05;;
55684;SDS011;41883;49.544;8.646;2022-10-16T06:53:26;1.35;;;0.90;;
55684;SDS011;41883;49.544;8.646;2022-10-16T06:55:52;1.23;;;0.70;;
55684;SDS011;41883;49.544;8.646;2022-10-16T06:58:18;1.88;;;1.00;;
55684;SDS011;41883;49.544;8.646;2022-10-16T07:00:44;1.77;;;1.00;;
55684;SDS011;41883;49.544;8.646;2022-10-16T07:03:09;1.27;;;0.70;;
55684;SDS011;41883;49.544;8.646;2022-10-16T07:05:41;1.10;;;0.80;;
55684;SDS011;41883;49.544;8.646;2022-10-16T07:08:07;1.30;;;0.90;;
55684;SDS011;41883;49.544;8.646;2022-10-16T07:10:33;1.48;;;0.93;;
55684;SDS011;41883;49.544;8.646;2022-10-16T07:12:59;1.48;;;1.00;;
55684;SDS011;41883;49.544;8.646;2022-10-16T07:15:25;1.13;;;0.82;;
55684;SDS011;41883;49.544;8.646;2022-10-16T07:17:51;2.33;;;0.80;;
55684;SDS011;41883;49.544;8.646;2022-10-16T07:20:16;1.42;;;0.90;;
55684;SDS011;41883;49.544;8.646;2022-10-16T07:22:41;1.65;;;1.02;;
55684;SDS011;41883;49.544;8.646;2022-10-16T07:25:07;1.55;;;0.90;;
55684;SDS011;41883;49.544;8.646;2022-10-16T07:27:33;1.02;;;0.80;;
55684;SDS011;41883;49.544;8.646;2022-10-16T07:29:59;1.60;;;1.02;;
55684;SDS011;41883;49.544;8.646;2022-10-16T07:32:24;3.08;;;0.90;;
55684;SDS011;41883;49.544;8.646;2022-10-16T07:34:50;1.58;;;0.90;;
55684;SDS011;41883;49.544;8.646;2022-10-16T07:37:16;1.33;;;0.90;;
55684;SDS011;41883;49.544;8.646;2022-10-16T07:39:41;1.40;;;0.80;;
55684;SDS011;41883;49.544;8.646;2022-10-16T07:42:06;1.95;;;0.95;;
55684;SDS011;41883;49.544;8.646;2022-10-16T07:44:32;1.10;;;0.77;;
55684;SDS011;41883;49.544;8.646;2022-10-16T07:46:58;1.13;;;0.85;;
55684;SDS011;41883;49.544;8.646;2022-10-16T07:49:23;1.35;;;0.90;;
55684;SDS011;41883;49.544;8.646;2022-10-16T07:51:48;1.27;;;0.77;;
55684;SDS011;41883;49.544;8.646;2022-10-16T07:54:13;0.63;;;0.60;;
55684;SDS011;41883;49.544;8.646;2022-10-16T07:56:39;1.38;;;0.80;;
55684;SDS011;41883;49.544;8.646;2022-10-16T07:59:04;2.15;;;0.93;;
55684;SDS011;41883;49.544;8.646;2022-10-16T08:01:29;1.55;;;0.90;;
55684;SDS011;41883;49.544;8.646;2022-10-16T08:03:54;2.10;;;1.10;;
55684;SDS011;41883;49.544;8.646;2022-10-16T08:06:20;1.67;;;1.00;;
55684;SDS011;41883;49.544;8.646;2022-10-16T08:08:47;1.65;;;1.10;;
55684;SDS011;41883;49.544;8.646;2022-10-16T08:11:12;2.03;;;1.20;;
55684;SDS011;41883;49.544;8.646;2022-10-16T08:13:39;2.72;;;1.40;;
55684;SDS011;41883;49.544;8.646;2022-10-16T08:16:04;1.95;;;0.80;;
55684;SDS011;41883;49.544;8.646;2022-10-16T08:18:32;1.70;;;1.05;;
55684;SDS011;41883;49.544;8.646;2022-10-16T08:21:02;0.93;;;0.82;;
55684;SDS011;41883;49.544;8.646;2022-10-16T08:23:28;2.22;;;1.10;;
55684;SDS011;41883;49.544;8.646;2022-10-16T08:25:54;2.33;;;1.25;;
55684;SDS011;41883;49.544;8.646;2022-10-16T08:28:21;1.17;;;0.90;;
55684;SDS011;41883;49.544;8.646;2022-10-16T08:30:47;2.20;;;1.10;;
55684;SDS011;41883;49.544;8.646;2022-10-16T08:33:12;1.23;;;0.90;;
55684;SDS011;41883;49.544;8.646;2022-10-16T08:35:37;1.67;;;1.00;;
55684;SDS011;41883;49.544;8.646;2022-10-16T08:38:03;1.47;;;0.90;;
55684;SDS011;41883;49.544;8.646;2022-10-16T08:40:30;1.30;;;0.80;;
55684;SDS011;41883;49.544;8.646;2022-10-16T08:48:43;2.25;;;1.20;;
55684;SDS011;41883;49.544;8.646;2022-10-16T08:51:12;2.05;;;1.20;;
55684;SDS011;41883;49.544;8.646;2022-10-16T08:53:45;1.80;;;1.23;;
55684;SDS011;41883;49.544;8.646;2022-10-16T08:56:14;2.25;;;1.27;;
55684;SDS011;41883;49.544;8.646;2022-10-16T08:58:40;2.85;;;1.40;;
55684;SDS011;41883;49.544;8.646;2022-10-16T09:01:10;4.05;;;1.80;;
55684;SDS011;41883;49.544;8.646;2022-10-16T09:06:50;5.13;;;1.80;;
55684;SDS011;41883;49.544;8.646;2022-10-16T09:09:29;3.90;;;1.75;;
55684;SDS011;41883;49.544;8.646;2022-10-16T09:12:05;3.53;;;1.70;;
55684;SDS011;41883;49.544;8.646;2022-10-16T09:17:23;3.00;;;1.77;;
55684;SDS011;41883;49.544;8.646;2022-10-16T09:20:13;6.85;;;2.38;;
55684;SDS011;41883;49.544;8.646;2022-10-16T09:22:43;6.40;;;2.03;;
55684;SDS011;41883;49.544;8.646;2022-10-16T09:25:15;3.35;;;1.85;;
55684;SDS011;41883;49.544;8.646;2022-10-16T09:27:44;4.93;;;1.63;;
55684;SDS011;41883;49.544;8.646;2022-10-16T09:30:18;2.45;;;1.40;;
55684;SDS011;41883;49.544;8.646;2022-10-16T09:32:46;2.20;;;1.25;;
55684;SDS011;41883;49.544;8.646;2022-10-16T09:35:22;2.97;;;1.50;;
55684;SDS011;41883;49.544;8.646;2022-10-16T09:37:56;2.85;;;1.17;;
55684;SDS011;41883;49.544;8.646;2022-10-16T09:40:31;1.63;;;1.00;;
55684;SDS011;41883;49.544;8.646;2022-10-16T09:43:03;1.58;;;0.90;;
55684;SDS011;41883;49.544;8.646;2022-10-16T09:45:40;2.30;;;0.90;;
55684;SDS011;41883;49.544;8.646;2022-10-16T09:48:10;1.30;;;0.77;;
55684;SDS011;41883;49.544;8.646;2022-10-16T09:50:36;1.10;;;0.70;;
55684;SDS011;41883;49.544;8.646;2022-10-16T09:53:02;0.88;;;0.70;;
55684;SDS011;41883;49.544;8.646;2022-10-16T09:55:29;1.20;;;0.70;;
55684;SDS011;41883;49.544;8.646;2022-10-16T09:57:55;2.03;;;1.05;;
55684;SDS011;41883;49.544;8.646;2022-10-16T10:00:21;1.15;;;0.80;;
55684;SDS011;41883;49.544;8.646;2022-10-16T10:02:48;1.60;;;0.80;;
55684;SDS011;41883;49.544;8.646;2022-10-16T10:05:32;2.00;;;1.00;;
55684;SDS011;41883;49.544;8.646;2022-10-16T10:07:59;2.28;;;1.00;;
55684;SDS011;41883;49.544;8.646;2022-10-16T10:10:31;1.50;;;0.85;;
55684;SDS011;41883;49.544;8.646;2022-10-16T10:12:57;2.63;;;1.00;;
55684;SDS011;41883;49.544;8.646;2022-10-16T10:15:24;1.80;;;1.02;;
55684;SDS011;41883;49.544;8.646;2022-10-16T10:17:55;2.22;;;0.88;;
55684;SDS011;41883;49.544;8.646;2022-10-16T10:22:52;1.90;;;1.00;;
55684;SDS011;41883;49.544;8.646;2022-10-16T10:30:44;2.15;;;1.10;;
55684;SDS011;41883;49.544;8.646;2022-10-16T10:36:11;1.40;;;0.90;;
55684;SDS011;41883;49.544;8.646;2022-10-16T10:46:23;2.70;;;1.10;;
55684;SDS011;41883;49.544;8.646;2022-10-16T10:54:32;2.40;;;1.40;;
55684;SDS011;41883;49.544;8.646;2022-10-16T10:57:25;1.58;;;0.90;;
55684;SDS011;41883;49.544;8.646;2022-10-16T10:59:57;3.35;;;1.20;;
55684;SDS011;41883;49.544;8.646;2022-10-16T11:02:47;1.20;;;0.80;;
55684;SDS011;41883;49.544;8.646;2022-10-16T11:10:40;1.48;;;0.95;;
55684;SDS011;41883;49.544;8.646;2022-10-16T11:13:15;1.25;;;0.90;;
55684;SDS011;41883;49.544;8.646;2022-10-16T11:15:47;1.38;;;0.80;;
55684;SDS011;41883;49.544;8.646;2022-10-16T11:18:16;2.45;;;0.90;;
55684;SDS011;41883;49.544;8.646;2022-10-16T11:26:14;0.93;;;0.70;;
55684;SDS011;41883;49.544;8.646;2022-10-16T11:28:48;1.60;;;0.90;;
55684;SDS011;41883;49.544;8.646;2022-10-16T11:34:04;1.67;;;1.02;;
55684;SDS011;41883;49.544;8.646;2022-10-16T11:39:25;1.48;;;0.90;;
55684;SDS011;41883;49.544;8.646;2022-10-16T11:44:54;1.58;;;0.82;;
55684;SDS011;41883;49.544;8.646;2022-10-16T11:55:16;1.58;;;0.90;;
55684;SDS011;41883;49.544;8.646;2022-10-16T11:57:46;2.22;;;1.10;;
55684;SDS011;41883;49.544;8.646;2022-10-16T12:03:03;3.03;;;1.27;;
55684;SDS011;41883;49.544;8.646;2022-10-16T12:05:54;1.73;;;1.00;;
55684;SDS011;41883;49.544;8.646;2022-10-16T12:10:51;2.88;;;1.05;;
55684;SDS011;41883;49.544;8.646;2022-10-16T12:16:21;2.40;;;1.20;;
55684;SDS011;41883;49.544;8.646;2022-10-16T12:18:48;2.47;;;1.10;;
55684;SDS011;41883;49.544;8.646;2022-10-16T12:21:15;1.17;;;0.88;;
55684;SDS011;41883;49.544;8.646;2022-10-16T12:26:26;1.77;;;1.05;;
55684;SDS011;41883;49.544;8.646;2022-10-16T12:28:54;1.45;;;0.98;;
55684;SDS011;41883;49.544;8.646;2022-10-16T12:31:20;2.65;;;1.10;;
55684;SDS011;41883;49.544;8.646;2022-10-16T12:33:57;1.50;;;1.10;;
55684;SDS011;41883;49.544;8.646;2022-10-16T12:36:29;1.17;;;0.90;;
55684;SDS011;41883;49.544;8.646;2022-10-16T12:38:57;1.20;;;0.80;;
55684;SDS011;41883;49.544;8.646;2022-10-16T12:41:27;1.33;;;0.70;;
55684;SDS011;41883;49.544;8.646;2022-10-16T12:43:54;1.05;;;0.60;;
55684;SDS011;41883;49.544;8.646;2022-10-16T12:51:40;1.67;;;1.00;;
55684;SDS011;41883;49.544;8.646;2022-10-16T12:59:18;2.55;;;1.27;;
55684;SDS011;41883;49.544;8.646;2022-10-16T13:02:15;1.42;;;1.10;;
55684;SDS011;41883;49.544;8.646;2022-10-16T13:10:37;2.22;;;1.25;;
55684;SDS011;41883;49.544;8.646;2022-10-16T13:15:37;2.63;;;1.00;;
55684;SDS011;41883;49.544;8.646;2022-10-16T13:18:14;2.00;;;1.30;;
55684;SDS011;41883;49.544;8.646;2022-10-16T13:20:51;1.98;;;1.10;;
55684;SDS011;41883;49.544;8.646;2022-10-16T13:29:14;1.75;;;1.25;;
55684;SDS011;41883;49.544;8.646;2022-10-16T13:31:40;2.50;;;1.38;;
55684;SDS011;41883;49.544;8.646;2022-10-16T13:34:11;3.03;;;1.20;;
55684;SDS011;41883;49.544;8.646;2022-10-16T13:36:49;1.70;;;1.23;;
55684;SDS011;41883;49.544;8.646;2022-10-16T13:44:34;1.50;;;1.10;;
55684;SDS011;41883;49.544;8.646;2022-10-16T13:47:05;2.10;;;1.10;;
55684;SDS011;41883;49.544;8.646;2022-10-16T13:49:31;1.87;;;1.13;;
55684;SDS011;41883;49.544;8.646;2022-10-16T13:51:59;1.80;;;1.08;;
55684;SDS011;41883;49.544;8.646;2022-10-16T13:54:25;1.63;;;1.15;;
55684;SDS011;41883;49.544;8.646;2022-10-16T13:56:53;2.20;;;1.20;;
55684;SDS011;41883;49.544;8.646;2022-10-16T14:01:53;3.28;;;1.35;;
55684;SDS011;41883;49.544;8.646;2022-10-16T14:04:22;1.58;;;0.98;;
55684;SDS011;41883;49.544;8.646;2022-10-16T14:06:49;2.10;;;0.90;;
55684;SDS011;41883;49.544;8.646;2022-10-16T14:09:28;1.55;;;0.90;;
55684;SDS011;41883;49.544;8.646;2022-10-16T14:12:02;1.45;;;0.90;;
55684;SDS011;41883;49.544;8.646;2022-10-16T14:14:38;1.13;;;0.90;;
55684;SDS011;41883;49.544;8.646;2022-10-16T14:17:13;1.38;;;0.90;;
55684;SDS011;41883;49.544;8.646;2022-10-16T14:19:47;1.20;;;0.85;;
55684;SDS011;41883;49.544;8.646;2022-10-16T14:28:13;4.30;;;1.30;;
55684;SDS011;41883;49.544;8.646;2022-10-16T14:30:48;2.17;;;1.40;;
55684;SDS011;41883;49.544;8.646;2022-10-16T14:33:23;1.92;;;1.30;;
55684;SDS011;41883;49.544;8.646;2022-10-16T14:36:00;2.33;;;1.40;;
55684;SDS011;41883;49.544;8.646;2022-10-16T14:38:28;2.65;;;1.50;;
55684;SDS011;41883;49.544;8.646;2022-10-16T14:40:54;3.38;;;1.60;;
55684;SDS011;41883;49.544;8.646;2022-10-16T14:43:28;4.28;;;1.70;;
55684;SDS011;41883;49.544;8.646;2022-10-16T14:46:17;3.08;;;1.50;;
55684;SDS011;41883;49.544;8.646;2022-10-16T14:48:48;2.65;;;1.60;;
55684;SDS011;41883;49.544;8.646;2022-10-16T14:51:16;2.83;;;1.52;;
55684;SDS011;41883;49.544;8.646;2022-10-16T14:53:42;8.10;;;2.05;;
55684;SDS011;41883;49.544;8.646;2022-10-16T14:56:17;2.50;;;1.77;;
55684;SDS011;41883;49.544;8.646;2022-10-16T14:58:49;3.78;;;1.60;;
55684;SDS011;41883;49.544;8.646;2022-10-16T15:01:15;1.85;;;1.40;;
55684;SDS011;41883;49.544;8.646;2022-10-16T15:03:41;2.15;;;1.10;;
55684;SDS011;41883;49.544;8.646;2022-10-16T15:06:10;2.80;;;1.40;;
55684;SDS011;41883;49.544;8.646;2022-10-16T15:08:36;1.53;;;1.00;;
55684;SDS011;41883;49.544;8.646;2022-10-16T15:11:02;1.50;;;1.02;;
55684;SDS011;41883;49.544;8.646;2022-10-16T15:13:27;1.60;;;1.10;;
55684;SDS011;41883;49.544;8.646;2022-10-16T15:15:53;2.03;;;1.10;;
55684;SDS011;41883;49.544;8.646;2022-10-16T15:18:18;1.50;;;1.20;;
55684;SDS011;41883;49.544;8.646;2022-10-16T15:20:48;1.42;;;1.00;;
55684;SDS011;41883;49.544;8.646;2022-10-16T15:23:15;2.45;;;1.40;;
55684;SDS011;41883;49.544;8.646;2022-10-16T15:25:50;2.13;;;1.50;;
55684;SDS011;41883;49.544;8.646;2022-10-16T15:30:42;4.22;;;1.80;;
55684;SDS011;41883;49.544;8.646;2022-10-16T15:33:16;2.72;;;1.63;;
55684;SDS011;41883;49.544;8.646;2022-10-16T15:35:46;2.17;;;1.35;;
55684;SDS011;41883;49.544;8.646;2022-10-16T15:38:12;1.75;;;1.20;;
55684;SDS011;41883;49.544;8.646;2022-10-16T15:40:39;1.77;;;1.40;;
55684;SDS011;41883;49.544;8.646;2022-10-16T15:43:04;1.83;;;1.25;;
55684;SDS011;41883;49.544;8.646;2022-10-16T15:45:30;1.27;;;0.95;;
55684;SDS011;41883;49.544;8.646;2022-10-16T15:47:55;1.60;;;1.10;;
55684;SDS011;41883;49.544;8.646;2022-10-16T15:50:21;2.53;;;1.15;;
55684;SDS011;41883;49.544;8.646;2022-10-16T15:52:46;1.40;;;1.02;;
55684;SDS011;41883;49.544;8.646;2022-10-16T15:55:12;1.60;;;1.13;;
55684;SDS011;41883;49.544;8.646;2022-10-16T15:57:39;3.90;;;1.20;;
55684;SDS011;41883;49.544;8.646;2022-10-16T16:00:09;2.58;;;1.35;;
55684;SDS011;41883;49.544;8.646;2022-10-16T16:02:37;4.00;;;1.60;;
55684;SDS011;41883;49.544;8.646;2022-10-16T16:05:03;3.25;;;1.60;;
55684;SDS011;41883;49.544;8.646;2022-10-16T16:07:32;1.80;;;1.20;;
55684;SDS011;41883;49.544;8.646;2022-10-16T16:09:58;1.88;;;1.20;;
55684;SDS011;41883;49.544;8.646;2022-10-16T16:12:24;2.80;;;1.40;;
55684;SDS011;41883;49.544;8.646;2022-10-16T16:14:49;1.83;;;1.40;;
55684;SDS011;41883;49.544;8.646;2022-10-16T16:17:14;2.67;;;1.35;;
55684;SDS011;41883;49.544;8.646;2022-10-16T16:19:40;1.73;;;1.25;;
55684;SDS011;41883;49.544;8.646;2022-10-16T16:22:05;1.85;;;1.23;;
55684;SDS011;41883;49.544;8.646;2022-10-16T16:24:30;1.42;;;1.10;;
55684;SDS011;41883;49.544;8.646;2022-10-16T16:26:56;2.40;;;1.60;;
55684;SDS011;41883;49.544;8.646;2022-10-16T16:29:21;3.70;;;1.70;;
55684;SDS011;41883;49.544;8.646;2022-10-16T16:31:46;2.70;;;1.70;;
55684;SDS011;41883;49.544;8.646;2022-10-16T16:34:12;2.75;;;1.40;;
55684;SDS011;41883;49.544;8.646;2022-10-16T16:36:38;3.22;;;1.60;;
55684;SDS011;41883;49.544;8.646;2022-10-16T16:39:05;2.42;;;1.70;;
55684;SDS011;41883;49.544;8.646;2022-10-16T16:41:31;2.15;;;1.38;;
55684;SDS011;41883;49.544;8.646;2022-10-16T16:44:01;2.42;;;1.48;;
55684;SDS011;41883;49.544;8.646;2022-10-16T16:48:53;3.03;;;1.70;;
55684;SDS011;41883;49.544;8.646;2022-10-16T16:51:20;2.58;;;1.60;;
55684;SDS011;41883;49.544;8.646;2022-10-16T16:56:12;4.50;;;2.55;;
55684;SDS011;41883;49.544;8.646;2022-10-16T16:58:38;4.22;;;3.47;;
55684;SDS011;41883;49.544;8.646;2022-10-16T17:03:29;8.35;;;6.78;;
55684;SDS011;41883;49.544;8.646;2022-10-16T17:05:57;6.40;;;4.63;;
55684;SDS011;41883;49.544;8.646;2022-10-16T17:10:54;5.97;;;3.10;;
55684;SDS011;41883;49.544;8.646;2022-10-16T17:13:23;6.13;;;3.90;;